Terminal Aerodrome Forecast
Issued by NWS

Home | Current Version | Previous Version | Text Only | Print | Product List | Glossary On
Versions: 1 2 3 4 5 6 7 8 9 10 11 12 13 14
000
FTAK31 PAJN 051724
TAFAKT
TAF
PAKT 051724Z 0518/0618 00000KT P6SM FEW010
     FM052000 14007KT P6SM FEW170
     FM060000 14009KT P6SM OVC150
     FM060700 14007KT P6SM OVC090
     FM061400 14014KT P6SM -RA SCT025 OVC040
      AMD LTD TO CLD VIS AND WIND 0606/0615=

USA.gov is the U.S. government's official web portal to all federal, state and local government web resources and services.